Barkley Regional Airport

Airport
ICAO code: 
KPAH
Summary
ICAO Region: 
NAM
Territory: 
Location: 
Paducah, Kentucky,
Coordinates: 
Aerial View: 
37° 3' 39.079" N, 88° 46' 20.782" W
Metar
Observation
KPAH 020853Z AUTO 00000KT 6SM BR CLR 10/08 A2999 RMK AO2 SLP155 T01000083 50001
Station
Paducah, Barkley Regional Airport
Date/Time
2021-12-02 08:53:00
Wind direction
Wind speed
00 kts
Lowest cloud amount
n/a
Temperature
10°C
Dew point
8.3°C
Humidity
89%
Weather condition
mist

Runways

Designator Length Width Surface Rops
14/32 1676 46 ASP Yes/Yes
4/22 1981 46 ASP Yes/Yes
Airport map: 
Aerial View: 

SKYbrary Partners:

Safety knowledge contributed by: